createdAt,value
2019-02-24T00:01:48.938Z,62.10
2019-02-24T00:04:20.807Z,62.06
2019-02-24T00:06:52.706Z,62.25
2019-02-24T00:09:24.584Z,61.88
2019-02-24T00:11:56.436Z,61.98
2019-02-24T00:14:28.242Z,61.93
2019-02-24T00:17:00.110Z,62.25
2019-02-24T00:19:31.955Z,62.33
2019-02-24T00:22:03.777Z,61.93
2019-02-24T00:24:35.571Z,62.83
2019-02-24T00:27:08.437Z,63.00
2019-02-24T00:29:40.312Z,62.33
2019-02-24T00:32:12.184Z,62.03
2019-02-24T00:34:44.060Z,61.37
2019-02-24T00:37:16.024Z,61.19
2019-02-24T00:39:47.972Z,61.56
2019-02-24T00:42:19.906Z,61.98
2019-02-24T00:44:51.772Z,61.51
2019-02-24T00:47:23.666Z,62.94
2019-02-24T00:49:55.563Z,63.27
2019-02-24T00:52:27.455Z,63.38
2019-02-24T00:54:59.391Z,63.31
2019-02-24T00:57:31.208Z,63.27
2019-02-24T01:00:03.019Z,63.27
2019-02-24T01:02:36.524Z,63.48
2019-02-24T01:05:08.792Z,63.45
2019-02-24T01:07:40.746Z,63.85
2019-02-24T01:10:12.835Z,63.88
2019-02-24T01:12:44.736Z,63.59
2019-02-24T01:15:16.627Z,63.46
2019-02-24T01:17:48.476Z,63.89
2019-02-24T01:20:20.319Z,64.29
2019-02-24T01:22:52.208Z,64.10
2019-02-24T01:25:24.153Z,64.28
2019-02-24T01:27:56.018Z,64.20
2019-02-24T01:30:27.920Z,64.03
2019-02-24T01:32:59.779Z,63.91
2019-02-24T01:35:31.715Z,64.47
2019-02-24T01:38:03.577Z,64.36
2019-02-24T01:40:35.416Z,64.20
2019-02-24T01:43:07.327Z,64.03
2019-02-24T01:45:39.329Z,63.78
2019-02-24T01:48:11.153Z,63.64
2019-02-24T01:50:43.037Z,63.78
2019-02-24T01:53:15.011Z,63.77
2019-02-24T01:55:46.916Z,64.26
2019-02-24T01:58:18.899Z,64.39
2019-02-24T02:00:52.331Z,65.12
2019-02-24T02:03:25.514Z,65.66
2019-02-24T02:06:00.595Z,65.46
2019-02-24T02:08:40.587Z,65.74
2019-02-24T02:11:14.184Z,65.71
2019-02-24T02:13:47.939Z,65.40
2019-02-24T02:16:22.608Z,65.67
2019-02-24T02:18:54.527Z,65.66
2019-02-24T02:21:31.488Z,66.56
2019-02-24T02:24:01.872Z,66.77
2019-02-24T02:26:36.410Z,67.53
2019-02-24T02:29:13.595Z,68.02
2019-02-24T02:31:51.524Z,67.33
2019-02-24T02:34:25.131Z,67.82
2019-02-24T02:37:05.753Z,67.25
2019-02-24T02:39:38.035Z,67.43
2019-02-24T02:42:09.943Z,69.40
2019-02-24T02:44:46.933Z,69.21
2019-02-24T02:47:21.908Z,69.22
2019-02-24T02:49:59.049Z,70.17
2019-02-24T02:52:37.029Z,70.19
2019-02-24T02:55:10.188Z,70.27
2019-02-24T02:57:49.071Z,69.48
2019-02-24T03:00:41.447Z,69.33
2019-02-24T03:03:13.251Z,69.86
2019-02-24T03:05:56.343Z,70.51
2019-02-24T03:08:48.080Z,70.74
2019-02-24T03:11:19.922Z,70.17
2019-02-24T03:13:51.801Z,69.58
2019-02-24T03:16:37.131Z,69.15
2019-02-24T03:19:10.250Z,69.51
2019-02-24T03:21:42.342Z,69.62
2019-02-24T03:24:17.240Z,69.61
2019-02-24T03:26:49.174Z,69.68
2019-02-24T03:29:26.537Z,70.15
2019-02-24T03:32:01.596Z,70.44
2019-02-24T03:34:33.867Z,71.44
2019-02-24T03:37:06.939Z,70.78
2019-02-24T03:39:39.119Z,71.28
2019-02-24T03:42:10.966Z,71.87
2019-02-24T03:44:42.830Z,71.88
2019-02-24T03:47:14.714Z,71.63
2019-02-24T03:49:46.570Z,71.21
2019-02-24T03:52:18.418Z,70.70
2019-02-24T03:54:50.319Z,70.42
2019-02-24T03:57:22.205Z,69.54
2019-02-24T03:59:54.186Z,68.77
2019-02-24T04:02:26.174Z,68.46
2019-02-24T04:04:58.020Z,67.42
2019-02-24T04:07:29.881Z,67.14
2019-02-24T04:10:01.716Z,67.14
2019-02-24T04:12:34.738Z,66.90
2019-02-24T04:15:07.198Z,66.83
2019-02-24T04:17:39.027Z,66.64
2019-02-24T04:20:10.838Z,65.94
2019-02-24T04:22:42.696Z,65.61
2019-02-24T04:25:14.565Z,65.00
2019-02-24T04:27:46.402Z,65.02
2019-02-24T04:30:18.291Z,65.36
2019-02-24T04:32:50.161Z,65.30
2019-02-24T04:35:21.976Z,65.15
2019-02-24T04:37:53.879Z,65.04
2019-02-24T04:40:25.745Z,65.32
2019-02-24T04:42:57.691Z,65.01
2019-02-24T04:45:29.568Z,64.40
2019-02-24T04:48:01.502Z,64.34
2019-02-24T04:50:33.358Z,64.16
2019-02-24T04:53:05.240Z,63.60
2019-02-24T04:55:37.122Z,63.49
2019-02-24T04:58:08.910Z,63.29
2019-02-24T05:00:40.799Z,63.00
2019-02-24T05:03:12.679Z,62.40
2019-02-24T05:05:44.594Z,62.05
2019-02-24T05:08:16.494Z,61.69
2019-02-24T05:10:48.334Z,61.77
2019-02-24T05:13:20.172Z,61.81
2019-02-24T05:15:52.027Z,61.41
2019-02-24T05:18:23.937Z,61.96
2019-02-24T05:20:55.731Z,61.97
2019-02-24T05:23:27.594Z,61.75
2019-02-24T05:25:59.442Z,61.38
2019-02-24T05:28:31.236Z,61.81
2019-02-24T05:31:03.244Z,62.22
2019-02-24T05:33:35.066Z,62.28
2019-02-24T05:36:06.927Z,62.25
2019-02-24T05:38:39.711Z,61.81
2019-02-24T05:41:11.751Z,62.20
2019-02-24T05:43:43.577Z,61.78
2019-02-24T05:46:15.495Z,61.56
2019-02-24T05:48:47.372Z,60.51
2019-02-24T05:51:19.302Z,61.04
2019-02-24T05:53:51.223Z,60.66
2019-02-24T05:56:23.140Z,60.74
2019-02-24T05:58:55.173Z,61.01
2019-02-24T06:01:27.417Z,61.19
2019-02-24T06:03:59.239Z,61.14
2019-02-24T06:06:31.145Z,60.74
2019-02-24T06:09:09.133Z,60.58
2019-02-24T06:11:41.294Z,60.52
2019-02-24T06:14:13.831Z,60.76
2019-02-24T06:16:46.023Z,60.46
2019-02-24T06:19:18.064Z,60.03
2019-02-24T06:21:50.058Z,60.22
2019-02-24T06:24:21.961Z,60.53
2019-02-24T06:26:53.949Z,60.57
2019-02-24T06:29:25.851Z,60.53
2019-02-24T06:31:57.769Z,60.61
2019-02-24T06:34:29.645Z,60.74
2019-02-24T06:37:01.835Z,60.31
2019-02-24T06:39:33.704Z,60.43
2019-02-24T06:42:05.568Z,60.65
2019-02-24T06:44:37.392Z,60.29
2019-02-24T06:47:09.256Z,60.25
2019-02-24T06:49:41.159Z,59.86
2019-02-24T06:52:13.069Z,59.10
2019-02-24T06:54:45.121Z,59.02
2019-02-24T06:57:18.166Z,59.13
2019-02-24T06:59:50.177Z,59.09
2019-02-24T07:02:22.075Z,58.90
2019-02-24T07:04:54.149Z,58.43
2019-02-24T07:07:26.141Z,58.00
2019-02-24T07:09:58.086Z,57.50
2019-02-24T07:12:30.026Z,57.21
2019-02-24T07:15:01.965Z,56.81
2019-02-24T07:17:34.950Z,55.83
2019-02-24T07:20:06.994Z,56.14
2019-02-24T07:22:39.146Z,56.46
2019-02-24T07:25:15.518Z,55.44
2019-02-24T07:27:47.477Z,55.04
2019-02-24T07:30:23.634Z,55.17
2019-02-24T07:32:53.093Z,55.28
2019-02-24T07:35:24.961Z,54.94
2019-02-24T07:37:56.889Z,54.59
2019-02-24T07:40:28.812Z,55.14
2019-02-24T07:43:00.833Z,54.90
2019-02-24T07:45:32.921Z,54.44
2019-02-24T07:48:05.138Z,54.70
2019-02-24T07:50:36.979Z,54.56
2019-02-24T07:53:09.194Z,54.97
2019-02-24T07:55:41.082Z,55.20
2019-02-24T07:58:13.259Z,54.72
2019-02-24T08:00:45.501Z,54.37
2019-02-24T08:03:17.711Z,54.00
2019-02-24T08:05:49.838Z,54.45
2019-02-24T08:08:24.748Z,53.62
2019-02-24T08:10:56.720Z,53.15
2019-02-24T08:13:31.266Z,52.79
2019-02-24T08:16:17.510Z,51.73
2019-02-24T08:19:39.702Z,50.61
2019-02-24T08:22:27.347Z,51.02
2019-02-24T08:25:23.165Z,50.14
2019-02-24T08:27:58.576Z,49.37
2019-02-24T08:30:40.958Z,49.29
2019-02-24T08:33:08.774Z,48.99
2019-02-24T08:35:43.404Z,48.25
2019-02-24T08:38:20.756Z,47.91
2019-02-24T08:40:57.246Z,47.72
2019-02-24T08:43:50.850Z,48.20
2019-02-24T08:46:22.976Z,48.25
2019-02-24T08:48:54.993Z,47.42
2019-02-24T08:51:26.996Z,47.73
2019-02-24T08:53:58.923Z,47.47
2019-02-24T08:56:30.805Z,47.62
2019-02-24T08:59:03.009Z,47.70
2019-02-24T09:01:35.628Z,46.91
2019-02-24T09:04:07.622Z,47.00
2019-02-24T09:06:39.655Z,45.97
2019-02-24T09:09:11.766Z,46.21
2019-02-24T09:11:43.708Z,46.39
2019-02-24T09:14:15.800Z,46.23
2019-02-24T09:16:47.898Z,46.59
2019-02-24T09:19:19.970Z,47.15
2019-02-24T09:21:52.165Z,45.62
2019-02-24T09:24:24.332Z,45.71
2019-02-24T09:26:56.379Z,45.69
2019-02-24T09:29:28.457Z,45.90
2019-02-24T09:32:00.442Z,45.66
2019-02-24T09:34:32.256Z,47.57
2019-02-24T09:37:04.282Z,48.15
2019-02-24T09:39:37.472Z,48.18
2019-02-24T09:42:09.416Z,49.09
2019-02-24T09:44:41.318Z,49.88
2019-02-24T09:47:13.127Z,49.85
2019-02-24T09:49:45.001Z,48.27
2019-02-24T09:52:16.832Z,47.33
2019-02-24T09:54:48.781Z,47.90
2019-02-24T09:57:20.754Z,47.96
2019-02-24T09:59:54.683Z,47.61
2019-02-24T10:02:26.651Z,47.62
2019-02-24T10:04:58.526Z,47.89
2019-02-24T10:07:30.350Z,47.92
2019-02-24T10:10:02.186Z,48.11
2019-02-24T10:12:34.121Z,47.94
2019-02-24T10:15:06.231Z,47.75
2019-02-24T10:17:38.184Z,47.49
2019-02-24T10:20:10.694Z,46.75
2019-02-24T10:22:42.515Z,46.07
2019-02-24T10:25:14.454Z,46.30
2019-02-24T10:27:46.283Z,45.48
2019-02-24T10:30:18.255Z,44.79
2019-02-24T10:32:50.101Z,44.63
2019-02-24T10:35:21.935Z,45.54
2019-02-24T10:37:53.827Z,45.00
2019-02-24T10:40:25.672Z,44.33
2019-02-24T10:42:57.590Z,43.99
2019-02-24T10:45:29.452Z,44.24
2019-02-24T10:48:01.480Z,43.00
2019-02-24T10:50:33.452Z,41.76
2019-02-24T10:53:07.391Z,42.35
2019-02-24T10:55:44.357Z,41.84
2019-02-24T11:06:28.802Z,37.21
2019-02-24T11:09:00.763Z,38.26
2019-02-24T11:11:34.485Z,37.88
2019-02-24T11:14:06.675Z,37.74
2019-02-24T11:16:38.879Z,37.12
2019-02-24T11:19:10.811Z,37.48
2019-02-24T11:21:42.791Z,36.76
2019-02-24T11:24:16.517Z,36.24
2019-02-24T11:26:48.627Z,37.06
2019-02-24T11:29:25.120Z,36.47
2019-02-24T11:32:45.015Z,36.24
2019-02-24T11:35:36.059Z,34.60
2019-02-24T11:38:14.571Z,33.71
2019-02-24T11:41:09.775Z,33.91
2019-02-24T11:47:10.340Z,35.12
2019-02-24T11:50:18.174Z,35.66
2019-02-24T11:53:02.678Z,35.68
2019-02-24T11:56:27.690Z,35.09
2019-02-24T12:19:53.028Z,30.79
2019-02-24T12:42:41.070Z,28.74
2019-02-24T12:45:08.951Z,29.71
2019-02-24T12:47:47.066Z,30.45
2019-02-24T12:50:27.405Z,26.91
2019-02-24T12:53:01.333Z,27.09
2019-02-24T12:55:36.386Z,27.13
2019-02-24T12:58:28.508Z,26.50
2019-02-24T13:01:04.272Z,26.43
2019-02-24T13:03:36.486Z,27.26
2019-02-24T13:06:10.504Z,25.91
2019-02-24T13:16:07.966Z,24.37
2019-02-24T13:19:36.834Z,25.37
2019-02-24T13:22:52.815Z,25.24
2019-02-24T13:29:36.634Z,24.83
2019-02-24T13:32:49.846Z,25.68
2019-02-24T13:36:03.242Z,26.17
2019-02-24T13:42:54.550Z,26.41
2019-02-24T13:45:34.162Z,24.79
2019-02-24T13:48:10.324Z,24.69
2019-02-24T13:58:48.891Z,24.45
2019-02-24T14:05:44.928Z,24.47
2019-02-24T14:08:17.731Z,23.66
2019-02-24T14:11:21.500Z,21.95
2019-02-24T14:13:54.169Z,22.45
2019-02-24T14:16:26.787Z,23.53
2019-02-24T14:20:15.409Z,24.08
2019-02-24T14:23:54.766Z,24.71
2019-02-24T14:30:55.743Z,25.60
2019-02-24T14:33:34.535Z,26.69
2019-02-24T14:39:43.604Z,26.93
2019-02-24T14:42:17.381Z,26.23
2019-02-24T14:44:51.856Z,26.72
2019-02-24T14:47:23.861Z,26.91
2019-02-24T14:49:56.035Z,27.51
2019-02-24T14:52:28.093Z,27.60
2019-02-24T14:55:00.298Z,27.01
2019-02-24T14:57:33.748Z,26.25
2019-02-24T15:00:06.811Z,26.50
2019-02-24T15:02:42.409Z,27.37
2019-02-24T15:05:16.830Z,28.31
2019-02-24T15:07:49.345Z,28.27
2019-02-24T15:10:21.617Z,28.07
2019-02-24T15:12:54.949Z,28.21
2019-02-24T15:15:32.881Z,28.05
2019-02-24T15:18:02.141Z,27.76
2019-02-24T15:20:34.153Z,27.42
2019-02-24T15:23:06.825Z,27.80
2019-02-24T15:25:39.052Z,27.90
2019-02-24T15:28:11.282Z,27.41
2019-02-24T15:30:43.483Z,27.92
2019-02-24T15:33:15.863Z,28.17
2019-02-24T15:35:48.025Z,27.71
2019-02-24T15:39:32.343Z,28.22
2019-02-24T15:41:29.345Z,27.99
2019-02-24T15:43:54.616Z,27.40
2019-02-24T15:46:28.170Z,28.05
2019-02-24T15:49:08.126Z,27.88
2019-02-24T15:51:50.183Z,28.31
2019-02-24T15:55:14.388Z,28.62
2019-02-24T16:12:46.505Z,29.02
2019-02-24T16:15:18.674Z,29.27
2019-02-24T16:17:51.065Z,29.75
2019-02-24T16:20:25.573Z,29.86
2019-02-24T16:23:01.930Z,30.10
2019-02-24T16:25:34.810Z,30.27
2019-02-24T16:28:09.513Z,30.25
2019-02-24T16:30:42.726Z,30.44
2019-02-24T16:33:16.452Z,30.71
2019-02-24T16:35:48.424Z,30.99
2019-02-24T16:38:23.080Z,31.13
2019-02-24T16:40:57.174Z,31.31
2019-02-24T16:43:35.671Z,31.48
2019-02-24T16:46:08.962Z,31.74
2019-02-24T16:48:41.112Z,31.80
2019-02-24T16:51:14.522Z,32.19
2019-02-24T16:53:46.851Z,32.48
2019-02-24T16:56:20.671Z,32.26
2019-02-24T16:58:52.501Z,32.07
2019-02-24T17:01:27.448Z,32.35
2019-02-24T17:04:09.761Z,32.41
2019-02-24T17:06:40.380Z,32.32
2019-02-24T17:09:13.587Z,32.40
2019-02-24T17:11:47.896Z,32.41
2019-02-24T17:14:22.185Z,32.35
2019-02-24T17:17:31.770Z,32.49
2019-02-24T17:20:17.104Z,32.60
2019-02-24T17:22:51.163Z,32.77
2019-02-24T17:25:42.797Z,33.03
2019-02-24T17:28:16.956Z,33.19
2019-02-24T17:30:52.265Z,33.34
2019-02-24T17:33:30.022Z,33.54
2019-02-24T17:35:58.540Z,33.84
2019-02-24T17:38:30.562Z,34.01
2019-02-24T17:41:02.528Z,34.64
2019-02-24T17:43:34.889Z,34.99
2019-02-24T17:46:07.366Z,35.54
2019-02-24T17:48:39.222Z,35.66
2019-02-24T17:51:20.599Z,35.80
2019-02-24T17:53:49.753Z,36.09
2019-02-24T17:56:24.668Z,36.35
2019-02-24T17:58:56.929Z,36.49
2019-02-24T18:01:29.338Z,36.63
2019-02-24T18:04:01.944Z,36.65
2019-02-24T18:06:34.240Z,36.73
2019-02-24T18:09:08.668Z,36.97
2019-02-24T18:11:45.219Z,36.79
2019-02-24T18:14:18.368Z,37.18
2019-02-24T18:16:51.020Z,37.78
2019-02-24T18:19:23.154Z,38.01
2019-02-24T18:21:55.268Z,38.14
2019-02-24T18:24:27.444Z,38.52
2019-02-24T18:26:59.850Z,38.19
2019-02-24T18:29:31.950Z,38.28
2019-02-24T18:32:04.024Z,38.40
2019-02-24T18:34:36.093Z,39.60
2019-02-24T18:37:07.952Z,39.59
2019-02-24T18:39:40.039Z,39.64
2019-02-24T18:42:13.553Z,40.19
2019-02-24T18:44:45.464Z,40.23
2019-02-24T18:47:17.387Z,40.22
2019-02-24T18:49:49.618Z,40.88
2019-02-24T18:52:21.636Z,40.91
2019-02-24T18:54:53.726Z,41.17
2019-02-24T18:57:25.800Z,41.37
2019-02-24T18:59:57.892Z,41.80
2019-02-24T19:02:29.853Z,42.17
2019-02-24T19:05:01.831Z,42.54
2019-02-24T19:07:35.001Z,42.93
2019-02-24T19:10:09.036Z,43.08
2019-02-24T19:12:41.006Z,42.87
2019-02-24T19:15:16.103Z,42.93
2019-02-24T19:17:49.201Z,42.94
2019-02-24T19:20:21.455Z,43.01
2019-02-24T19:22:53.275Z,43.17
2019-02-24T19:25:25.163Z,42.88
2019-02-24T19:27:57.061Z,42.92
2019-02-24T19:30:28.987Z,43.08
2019-02-24T19:33:00.917Z,43.19
2019-02-24T19:35:32.913Z,43.29
2019-02-24T19:38:04.889Z,43.46
2019-02-24T19:40:37.119Z,43.54
2019-02-24T19:43:09.159Z,43.79
2019-02-24T19:45:41.073Z,43.87
2019-02-24T19:48:13.239Z,43.89
2019-02-24T19:50:45.461Z,44.02
2019-02-24T19:53:17.355Z,43.99
2019-02-24T19:55:49.791Z,44.07
2019-02-24T19:58:22.375Z,44.46
2019-02-24T20:00:55.533Z,44.33
2019-02-24T20:03:27.816Z,44.35
2019-02-24T20:06:00.041Z,45.11
2019-02-24T20:08:32.016Z,45.10
2019-02-24T20:11:05.287Z,45.16
2019-02-24T20:13:37.665Z,45.18
2019-02-24T20:16:09.646Z,45.10
2019-02-24T20:18:41.857Z,45.33
2019-02-24T20:21:14.097Z,45.56
2019-02-24T20:23:46.154Z,45.54
2019-02-24T20:26:18.080Z,45.58
2019-02-24T20:28:49.939Z,45.64
2019-02-24T20:31:21.744Z,46.08
2019-02-24T20:33:53.651Z,46.23
2019-02-24T20:36:25.583Z,46.59
2019-02-24T20:38:57.601Z,46.75
2019-02-24T20:41:29.460Z,46.86
2019-02-24T20:44:01.537Z,47.08
2019-02-24T20:46:36.393Z,47.21
2019-02-24T20:49:09.106Z,47.58
2019-02-24T20:51:41.063Z,47.88
2019-02-24T20:54:12.996Z,48.15
2019-02-24T20:56:45.072Z,48.36
2019-02-24T20:59:16.968Z,48.86
2019-02-24T21:02:02.539Z,49.00
2019-02-24T21:04:34.423Z,49.09
2019-02-24T21:07:06.289Z,49.41
2019-02-24T21:09:38.268Z,49.59
2019-02-24T21:12:10.126Z,49.60
2019-02-24T21:14:42.234Z,49.41
2019-02-24T21:17:14.155Z,49.83
2019-02-24T21:19:45.994Z,49.92
2019-02-24T21:22:17.902Z,49.81
2019-02-24T21:24:49.784Z,50.50
2019-02-24T21:27:21.611Z,50.71
2019-02-24T21:29:53.519Z,50.89
2019-02-24T21:32:25.412Z,50.91
2019-02-24T21:34:57.278Z,51.13
2019-02-24T21:37:29.238Z,51.19
2019-02-24T21:40:01.160Z,50.86
2019-02-24T21:42:33.354Z,51.66
2019-02-24T21:45:05.331Z,52.45
2019-02-24T21:47:37.414Z,52.47
2019-02-24T21:50:10.426Z,52.25
2019-02-24T21:52:42.292Z,51.89
2019-02-24T21:55:15.576Z,51.87
2019-02-24T21:57:47.508Z,53.64
2019-02-24T22:00:21.620Z,54.06
2019-02-24T22:02:53.570Z,54.15
2019-02-24T22:05:26.518Z,54.31
2019-02-24T22:07:58.373Z,54.44
2019-02-24T22:10:30.306Z,54.36
2019-02-24T22:13:02.206Z,54.40
2019-02-24T22:15:34.139Z,55.17
2019-02-24T22:18:06.048Z,55.34
2019-02-24T22:20:38.024Z,55.35
2019-02-24T22:23:09.914Z,54.92
2019-02-24T22:25:41.956Z,54.55
2019-02-24T22:28:13.978Z,55.49
2019-02-24T22:30:45.833Z,55.17
2019-02-24T22:33:17.695Z,54.87
2019-02-24T22:35:49.568Z,55.91
2019-02-24T22:38:21.534Z,56.33
2019-02-24T22:40:54.555Z,55.81
2019-02-24T22:43:26.585Z,55.94
2019-02-24T22:45:58.562Z,56.49
2019-02-24T22:48:30.418Z,56.78
2019-02-24T22:51:02.341Z,56.92
2019-02-24T22:53:34.217Z,56.93
2019-02-24T22:56:06.126Z,56.94
2019-02-24T22:58:38.051Z,56.86
2019-02-24T23:01:25.862Z,56.92
2019-02-24T23:04:07.689Z,56.81
2019-02-24T23:06:39.702Z,56.87
2019-02-24T23:09:18.609Z,56.79
2019-02-24T23:11:50.629Z,56.69
2019-02-24T23:14:24.105Z,56.68
2019-02-24T23:16:55.927Z,56.59
2019-02-24T23:19:27.779Z,56.79
2019-02-24T23:21:59.788Z,56.46
2019-02-24T23:24:31.710Z,56.73
2019-02-24T23:27:03.718Z,56.75
2019-02-24T23:29:35.636Z,56.58
2019-02-24T23:32:07.517Z,56.16
2019-02-24T23:34:39.353Z,57.12
2019-02-24T23:37:11.201Z,57.19
2019-02-24T23:39:42.997Z,57.29
2019-02-24T23:42:14.823Z,57.36
2019-02-24T23:44:46.668Z,57.31
2019-02-24T23:47:18.508Z,57.24
2019-02-24T23:49:50.340Z,57.20
2019-02-24T23:52:22.333Z,57.18
2019-02-24T23:54:54.249Z,57.42
2019-02-24T23:57:26.121Z,57.57
2019-02-24T23:59:58.024Z,57.68
